createdAt,value
2019-05-26T00:00:31.896Z,22.60
2019-05-26T00:03:03.242Z,14.30
2019-05-26T00:05:34.349Z,14.50
2019-05-26T00:08:05.579Z,13.30
2019-05-26T00:10:36.835Z,12.30
2019-05-26T00:13:08.071Z,13.93
2019-05-26T00:15:39.218Z,12.13
2019-05-26T00:18:10.387Z,17.33
2019-05-26T00:20:41.641Z,15.37
2019-05-26T00:23:12.917Z,16.63
2019-05-26T00:25:44.219Z,15.70
2019-05-26T00:28:15.460Z,14.37
2019-05-26T00:30:46.608Z,23.13
2019-05-26T00:33:17.855Z,15.40
2019-05-26T00:35:49.092Z,19.27
2019-05-26T00:38:20.265Z,17.27
2019-05-26T00:40:51.522Z,14.10
2019-05-26T00:43:22.815Z,17.63
2019-05-26T00:45:54.049Z,13.93
2019-05-26T00:48:25.321Z,19.07
2019-05-26T00:50:56.664Z,19.30
2019-05-26T00:53:27.862Z,15.43
2019-05-26T00:55:59.099Z,12.17
2019-05-26T00:58:30.346Z,14.60
2019-05-26T01:01:01.595Z,15.67
2019-05-26T01:03:32.849Z,13.80
2019-05-26T01:06:04.126Z,14.43
2019-05-26T01:08:35.330Z,15.27
2019-05-26T01:11:06.649Z,14.80
2019-05-26T01:13:37.789Z,15.90
2019-05-26T01:16:08.951Z,20.97
2019-05-26T01:18:40.187Z,18.23
2019-05-26T01:21:11.407Z,18.60
2019-05-26T01:23:43.075Z,19.53
2019-05-26T01:26:14.226Z,18.57
2019-05-26T01:28:45.519Z,22.33
2019-05-26T01:31:16.811Z,19.33
2019-05-26T01:33:48.042Z,25.37
2019-05-26T01:36:19.782Z,19.00
2019-05-26T01:38:52.458Z,26.17
2019-05-26T01:41:23.784Z,22.13
2019-05-26T01:43:55.007Z,17.77
2019-05-26T01:46:26.151Z,19.20
2019-05-26T01:48:57.278Z,17.90
2019-05-26T01:51:28.508Z,20.63
2019-05-26T01:53:59.742Z,18.60
2019-05-26T01:56:30.979Z,20.00
2019-05-26T01:59:02.244Z,20.00
2019-05-26T02:01:33.472Z,18.03
2019-05-26T02:04:04.676Z,18.47
2019-05-26T02:06:35.907Z,23.50
2019-05-26T02:09:09.367Z,19.97
2019-05-26T02:11:40.571Z,21.80
2019-05-26T02:14:14.471Z,23.53
2019-05-26T02:16:44.764Z,16.87
2019-05-26T02:19:15.970Z,17.97
2019-05-26T02:21:47.385Z,21.63
2019-05-26T02:24:18.636Z,21.23
2019-05-26T02:26:49.897Z,18.33
2019-05-26T02:29:21.223Z,18.97
2019-05-26T02:31:52.480Z,21.10
2019-05-26T02:34:23.742Z,27.83
2019-05-26T02:36:55.043Z,34.47
2019-05-26T02:39:26.304Z,26.40
2019-05-26T02:41:57.553Z,28.33
2019-05-26T02:44:28.792Z,30.27
2019-05-26T02:47:00.023Z,28.13
2019-05-26T02:49:31.372Z,27.70
2019-05-26T02:52:02.675Z,24.93
2019-05-26T02:54:33.873Z,26.73
2019-05-26T02:57:05.254Z,24.60
2019-05-26T02:59:36.516Z,26.43
2019-05-26T03:02:07.977Z,23.83
2019-05-26T03:04:40.689Z,23.93
2019-05-26T03:07:14.184Z,30.60
2019-05-26T03:09:49.228Z,29.80
2019-05-26T03:12:24.258Z,32.57
2019-05-26T03:14:57.655Z,27.00
2019-05-26T03:17:35.313Z,31.50
2019-05-26T03:20:07.621Z,30.30
2019-05-26T03:22:44.201Z,30.80
2019-05-26T03:25:16.100Z,27.47
2019-05-26T03:27:47.450Z,31.20
2019-05-26T03:30:18.812Z,26.10
2019-05-26T03:32:52.807Z,28.00
2019-05-26T03:35:23.729Z,24.50
2019-05-26T03:37:54.934Z,32.10
2019-05-26T03:40:26.070Z,27.67
2019-05-26T03:42:57.290Z,33.87
2019-05-26T03:46:06.190Z,30.77
2019-05-26T03:48:37.449Z,30.50
2019-05-26T03:51:08.732Z,35.77
2019-05-26T03:53:39.977Z,31.03
2019-05-26T03:56:11.373Z,29.83
2019-05-26T03:58:42.639Z,31.10
2019-05-26T04:01:14.091Z,28.33
2019-05-26T04:03:45.281Z,25.87
2019-05-26T04:06:16.519Z,29.70
2019-05-26T04:08:47.790Z,28.27
2019-05-26T04:11:19.006Z,31.63
2019-05-26T04:13:50.307Z,30.20
2019-05-26T04:16:21.495Z,32.50
2019-05-26T04:18:52.770Z,31.30
2019-05-26T04:21:23.885Z,32.87
2019-05-26T04:23:55.186Z,32.97
2019-05-26T04:26:26.440Z,30.03
2019-05-26T04:28:57.668Z,32.40
2019-05-26T04:31:28.949Z,33.37
2019-05-26T04:34:00.168Z,29.53
2019-05-26T04:36:31.419Z,32.17
2019-05-26T04:39:02.644Z,33.23
2019-05-26T04:41:33.912Z,34.83
2019-05-26T04:44:05.308Z,33.07
2019-05-26T04:46:36.559Z,35.43
2019-05-26T04:49:07.811Z,33.97
2019-05-26T04:51:39.055Z,31.47
2019-05-26T04:54:10.318Z,31.23
2019-05-26T04:56:41.604Z,29.30
2019-05-26T04:59:12.858Z,37.50
2019-05-26T05:01:44.104Z,30.50
2019-05-26T05:04:15.396Z,31.13
2019-05-26T05:06:46.668Z,33.47
2019-05-26T05:09:17.895Z,30.37
2019-05-26T05:11:49.089Z,33.10
2019-05-26T05:14:20.287Z,30.47
2019-05-26T05:16:51.622Z,28.70
2019-05-26T05:19:22.822Z,33.63
2019-05-26T05:21:54.043Z,32.37
2019-05-26T05:24:25.424Z,33.33
2019-05-26T05:26:56.681Z,34.97
2019-05-26T05:29:27.923Z,38.10
2019-05-26T05:31:59.190Z,32.37
2019-05-26T05:34:30.504Z,37.00
2019-05-26T05:37:01.750Z,35.70
2019-05-26T05:39:33.027Z,35.07
2019-05-26T05:42:04.663Z,38.57
2019-05-26T05:44:35.989Z,38.47
2019-05-26T05:47:07.240Z,39.80
2019-05-26T05:49:38.472Z,39.67
2019-05-26T05:52:09.786Z,42.00
2019-05-26T05:54:41.104Z,44.00
2019-05-26T05:57:12.321Z,40.70
2019-05-26T05:59:43.646Z,42.13
2019-05-26T06:02:14.848Z,44.00
2019-05-26T06:04:46.022Z,38.93
2019-05-26T06:07:17.231Z,43.03
2019-05-26T06:09:48.543Z,41.67
2019-05-26T06:12:20.029Z,41.20
2019-05-26T06:14:51.308Z,37.33
2019-05-26T06:17:22.573Z,38.90
2019-05-26T06:19:54.404Z,34.93
2019-05-26T06:22:25.702Z,36.67
2019-05-26T06:24:56.992Z,31.50
2019-05-26T06:27:28.307Z,30.40
2019-05-26T06:30:00.274Z,32.70
2019-05-26T06:32:31.455Z,29.30
2019-05-26T06:35:04.083Z,28.90
2019-05-26T06:37:35.380Z,29.93
2019-05-26T06:40:07.529Z,25.33
2019-05-26T06:42:40.726Z,24.90
2019-05-26T06:45:12.765Z,25.60
2019-05-26T06:47:52.999Z,27.10
2019-05-26T06:50:24.265Z,26.93
2019-05-26T06:52:55.457Z,25.60
2019-05-26T06:55:26.802Z,25.60
2019-05-26T06:57:58.224Z,24.37
2019-05-26T07:00:29.462Z,26.60
2019-05-26T07:03:00.694Z,26.97
2019-05-26T07:05:32.001Z,24.03
2019-05-26T07:08:03.288Z,26.00
2019-05-26T07:10:34.544Z,23.10
2019-05-26T07:13:05.948Z,24.63
2019-05-26T07:15:37.209Z,25.30
2019-05-26T07:18:08.488Z,20.37
2019-05-26T07:20:40.257Z,24.23
2019-05-26T07:23:11.604Z,24.80
2019-05-26T07:25:42.726Z,23.47
2019-05-26T07:28:14.041Z,21.03
2019-05-26T07:30:45.272Z,20.93
2019-05-26T07:33:17.072Z,21.50
2019-05-26T07:35:49.922Z,20.50
2019-05-26T07:38:21.544Z,19.57
2019-05-26T07:40:52.841Z,20.23
2019-05-26T07:43:27.845Z,19.37
2019-05-26T07:45:57.111Z,18.50
2019-05-26T07:48:28.454Z,19.00
2019-05-26T07:50:59.688Z,18.50
2019-05-26T07:53:31.159Z,20.67
2019-05-26T07:56:02.411Z,17.63
2019-05-26T07:58:33.687Z,19.00
2019-05-26T08:01:05.479Z,17.60
2019-05-26T08:03:36.896Z,19.70
2019-05-26T08:06:08.232Z,17.40
2019-05-26T08:08:39.496Z,18.20
2019-05-26T08:11:10.857Z,18.90
2019-05-26T08:13:42.229Z,19.63
2019-05-26T08:16:13.600Z,17.07
2019-05-26T08:18:44.905Z,20.50
2019-05-26T08:21:16.255Z,15.77
2019-05-26T08:23:50.588Z,16.77
2019-05-26T08:26:28.688Z,16.47
2019-05-26T08:28:59.974Z,16.70
2019-05-26T08:31:31.433Z,17.37
2019-05-26T08:34:02.707Z,17.97
2019-05-26T08:36:51.371Z,14.67
2019-05-26T08:39:42.524Z,14.83
2019-05-26T08:42:26.358Z,17.97
2019-05-26T08:44:46.841Z,15.23
2019-05-26T08:47:18.136Z,13.87
2019-05-26T08:49:49.381Z,15.33
2019-05-26T08:52:22.425Z,14.87
2019-05-26T08:55:00.815Z,15.90
2019-05-26T08:57:40.284Z,12.70
2019-05-26T09:00:21.221Z,15.30
2019-05-26T09:03:03.227Z,13.90
2019-05-26T09:05:34.686Z,13.50
2019-05-26T09:08:08.092Z,13.07
2019-05-26T09:10:40.404Z,12.03
2019-05-26T09:13:11.637Z,13.20
2019-05-26T09:15:43.864Z,16.13
2019-05-26T09:18:15.051Z,17.40
2019-05-26T09:20:46.247Z,14.23
2019-05-26T09:23:17.546Z,13.70
2019-05-26T09:25:48.844Z,12.50
2019-05-26T09:28:20.234Z,15.10
2019-05-26T09:30:51.656Z,14.93
2019-05-26T09:33:23.100Z,12.57
2019-05-26T09:35:54.374Z,10.37
2019-05-26T09:38:25.634Z,12.93
2019-05-26T09:40:56.870Z,11.67
2019-05-26T09:43:28.112Z,11.33
2019-05-26T09:45:59.416Z,13.23
2019-05-26T09:48:30.682Z,10.20
2019-05-26T09:51:02.020Z,10.47
2019-05-26T09:53:33.258Z,11.33
2019-05-26T09:56:04.598Z,11.03
2019-05-26T09:58:35.847Z,12.30
2019-05-26T10:01:07.328Z,11.30
2019-05-26T10:03:38.657Z,10.80
2019-05-26T10:06:09.916Z,9.43
2019-05-26T10:08:41.220Z,9.37
2019-05-26T10:11:12.557Z,9.97
2019-05-26T10:13:43.827Z,9.50
2019-05-26T10:16:15.089Z,10.27
2019-05-26T10:18:52.222Z,9.27
2019-05-26T10:21:23.421Z,8.63
2019-05-26T10:23:54.769Z,11.30
2019-05-26T10:26:25.935Z,8.57
2019-05-26T10:29:00.426Z,7.27
2019-05-26T10:31:30.177Z,6.80
2019-05-26T10:34:01.449Z,6.83
2019-05-26T10:36:32.789Z,6.10
2019-05-26T10:39:04.315Z,11.63
2019-05-26T10:41:35.578Z,7.97
2019-05-26T10:44:06.953Z,5.90
2019-05-26T10:46:38.208Z,5.40
2019-05-26T10:49:09.469Z,8.13
2019-05-26T10:51:40.759Z,7.23
2019-05-26T10:54:12.009Z,5.73
2019-05-26T10:56:43.353Z,5.13
2019-05-26T10:59:14.552Z,7.00
2019-05-26T11:01:45.865Z,6.20
2019-05-26T11:04:17.128Z,5.87
2019-05-26T11:06:48.441Z,5.63
2019-05-26T11:09:19.737Z,6.27
2019-05-26T11:11:51.039Z,6.47
2019-05-26T11:14:22.299Z,4.63
2019-05-26T11:16:53.500Z,5.57
2019-05-26T11:19:24.721Z,7.07
2019-05-26T11:21:56.020Z,5.20
2019-05-26T11:24:27.301Z,7.40
2019-05-26T11:27:08.214Z,6.13
2019-05-26T11:29:31.739Z,4.80
2019-05-26T11:32:02.993Z,5.33
2019-05-26T11:34:34.189Z,5.80
2019-05-26T11:37:07.414Z,5.43
2019-05-26T11:39:38.738Z,6.00
2019-05-26T11:42:13.403Z,5.63
2019-05-26T11:44:42.955Z,6.80
2019-05-26T11:47:14.228Z,5.87
2019-05-26T11:49:45.521Z,6.57
2019-05-26T11:52:20.077Z,6.30
2019-05-26T11:54:49.816Z,4.33
2019-05-26T11:57:21.104Z,4.47
2019-05-26T11:59:52.349Z,5.73
2019-05-26T12:02:23.639Z,6.77
2019-05-26T12:04:54.980Z,4.77
2019-05-26T12:07:26.603Z,6.50
2019-05-26T12:09:57.856Z,6.70
2019-05-26T12:12:29.100Z,5.27
2019-05-26T12:15:00.303Z,7.33
2019-05-26T12:17:31.638Z,6.40
2019-05-26T12:20:05.394Z,6.30
2019-05-26T12:22:35.790Z,6.77
2019-05-26T12:25:09.042Z,5.90
2019-05-26T12:27:40.365Z,10.03
2019-05-26T12:30:15.569Z,6.13
2019-05-26T12:32:47.043Z,9.37
2019-05-26T12:35:18.909Z,9.23
2019-05-26T12:37:50.172Z,9.50
2019-05-26T12:40:21.632Z,7.40
2019-05-26T12:42:52.852Z,8.90
2019-05-26T12:45:24.324Z,5.83
2019-05-26T12:47:55.622Z,9.43
2019-05-26T12:51:02.435Z,6.60
2019-05-26T12:56:47.085Z,4.47
2019-05-26T12:59:18.306Z,6.43
2019-05-26T13:01:49.622Z,6.70
2019-05-26T13:04:20.931Z,4.80
2019-05-26T13:06:52.194Z,4.90
2019-05-26T13:09:33.461Z,4.33
2019-05-26T13:12:04.728Z,6.03
2019-05-26T13:14:35.988Z,5.30
2019-05-26T13:17:07.508Z,5.13
2019-05-26T13:19:38.717Z,4.60
2019-05-26T13:22:10.024Z,4.77
2019-05-26T13:24:43.545Z,5.07
2019-05-26T13:27:14.854Z,10.50
2019-05-26T13:29:46.049Z,4.33
2019-05-26T13:32:17.287Z,4.60
2019-05-26T13:34:48.568Z,4.33
2019-05-26T13:37:19.899Z,4.70
2019-05-26T13:39:51.195Z,5.47
2019-05-26T13:42:22.428Z,4.90
2019-05-26T13:44:53.640Z,5.90
2019-05-26T13:47:26.545Z,4.47
2019-05-26T13:49:58.158Z,4.53
2019-05-26T13:52:29.311Z,5.07
2019-05-26T13:55:00.496Z,5.00
2019-05-26T13:57:31.778Z,4.83
2019-05-26T14:00:03.183Z,11.57
2019-05-26T14:02:34.397Z,6.43
2019-05-26T14:05:08.964Z,4.27
2019-05-26T14:07:40.186Z,5.17
2019-05-26T14:10:12.148Z,4.33
2019-05-26T14:12:43.325Z,4.90
2019-05-26T14:15:14.784Z,8.83
2019-05-26T14:17:46.868Z,7.63
2019-05-26T14:20:22.498Z,5.10
2019-05-26T14:22:53.720Z,5.87
2019-05-26T14:25:24.948Z,4.30
2019-05-26T14:27:56.262Z,4.90
2019-05-26T14:30:27.552Z,4.87
2019-05-26T14:32:58.854Z,5.13
2019-05-26T14:35:30.096Z,4.93
2019-05-26T14:38:01.361Z,4.30
2019-05-26T14:40:32.805Z,5.50
2019-05-26T14:43:04.109Z,7.57
2019-05-26T14:45:35.333Z,5.20
2019-05-26T14:48:07.816Z,6.90
2019-05-26T14:50:40.899Z,7.57
2019-05-26T14:53:12.090Z,5.27
2019-05-26T14:55:43.267Z,4.20
2019-05-26T14:58:16.476Z,4.77
2019-05-26T15:00:47.384Z,6.80
2019-05-26T15:03:18.517Z,3.87
2019-05-26T15:06:03.190Z,9.00
2019-05-26T15:08:22.466Z,5.83
2019-05-26T15:10:53.722Z,3.67
2019-05-26T15:13:25.048Z,4.70
2019-05-26T15:16:09.277Z,4.90
2019-05-26T15:18:29.107Z,4.83
2019-05-26T15:21:00.604Z,3.37
2019-05-26T15:23:31.921Z,3.27
2019-05-26T15:26:05.273Z,4.60
2019-05-26T15:28:36.167Z,3.17
2019-05-26T15:31:10.095Z,4.97
2019-05-26T15:33:40.226Z,4.83
2019-05-26T15:36:11.467Z,4.20
2019-05-26T15:38:43.516Z,3.43
2019-05-26T15:41:14.869Z,6.53
2019-05-26T15:43:46.152Z,4.53
2019-05-26T15:46:25.165Z,4.83
2019-05-26T15:48:50.449Z,6.73
2019-05-26T15:51:21.734Z,3.97
2019-05-26T15:53:53.035Z,6.50
2019-05-26T15:56:24.220Z,5.77
2019-05-26T15:58:55.586Z,4.50
2019-05-26T16:01:26.993Z,4.53
2019-05-26T16:03:58.322Z,4.20
2019-05-26T16:06:29.586Z,5.07
2019-05-26T16:09:01.750Z,3.97
2019-05-26T16:11:33.018Z,3.40
2019-05-26T16:14:04.345Z,5.50
2019-05-26T16:16:41.133Z,4.40
2019-05-26T16:19:08.611Z,6.37
2019-05-26T16:21:39.821Z,5.30
2019-05-26T16:24:11.203Z,4.73
2019-05-26T16:26:42.474Z,6.17
2019-05-26T16:29:13.664Z,4.93
2019-05-26T16:31:44.871Z,4.60
2019-05-26T16:34:16.226Z,4.80
2019-05-26T16:36:47.468Z,5.53
2019-05-26T16:39:18.699Z,5.10
2019-05-26T16:41:49.931Z,4.40
2019-05-26T16:44:21.248Z,8.23
2019-05-26T16:46:56.410Z,6.27
2019-05-26T16:49:26.079Z,7.77
2019-05-26T16:51:57.446Z,5.43
2019-05-26T16:54:28.755Z,4.27
2019-05-26T16:57:00.134Z,7.63
2019-05-26T16:59:31.474Z,8.73
2019-05-26T17:02:02.773Z,5.90
2019-05-26T17:04:34.131Z,4.33
2019-05-26T17:07:05.464Z,9.43
2019-05-26T17:09:36.816Z,5.10
2019-05-26T17:12:08.083Z,6.17
2019-05-26T17:14:39.486Z,5.20
2019-05-26T17:17:15.015Z,7.40
2019-05-26T17:19:43.725Z,5.40
2019-05-26T17:22:15.044Z,4.30
2019-05-26T17:24:46.315Z,4.80
2019-05-26T17:27:17.823Z,5.30
2019-05-26T17:29:49.121Z,5.10
2019-05-26T17:32:20.371Z,5.30
2019-05-26T17:34:51.858Z,6.43
2019-05-26T17:37:23.380Z,5.10
2019-05-26T17:39:55.092Z,6.73
2019-05-26T17:42:26.319Z,5.10
2019-05-26T17:44:57.674Z,4.97
2019-05-26T17:47:30.742Z,5.00
2019-05-26T17:50:02.001Z,8.23
2019-05-26T17:52:33.326Z,5.63
2019-05-26T17:55:04.806Z,7.43
2019-05-26T17:57:37.230Z,4.50
2019-05-26T18:00:10.030Z,5.77
2019-05-26T18:02:41.320Z,6.40
2019-05-26T18:05:12.904Z,4.17
2019-05-26T18:07:44.225Z,4.63
2019-05-26T18:10:16.473Z,4.03
2019-05-26T18:12:47.749Z,4.80
2019-05-26T18:15:23.118Z,5.13
2019-05-26T18:17:54.334Z,4.07
2019-05-26T18:20:25.858Z,4.20
2019-05-26T18:22:57.244Z,5.03
2019-05-26T18:25:28.921Z,6.10
2019-05-26T18:28:01.542Z,4.80
2019-05-26T18:30:32.879Z,6.10
2019-05-26T18:33:06.923Z,6.30
2019-05-26T18:35:39.223Z,5.23
2019-05-26T18:38:11.094Z,5.33
2019-05-26T18:40:43.236Z,4.67
2019-05-26T18:43:14.676Z,5.80
2019-05-26T18:45:45.989Z,7.20
2019-05-26T18:48:17.295Z,4.50
2019-05-26T18:50:48.582Z,8.40
2019-05-26T18:53:19.941Z,8.20
2019-05-26T18:55:51.410Z,5.70
2019-05-26T18:58:22.761Z,10.40
2019-05-26T19:00:54.023Z,5.97
2019-05-26T19:03:26.074Z,7.57
2019-05-26T19:05:57.574Z,7.20
2019-05-26T19:08:29.080Z,6.27
2019-05-26T19:11:00.670Z,5.67
2019-05-26T19:13:32.046Z,8.00
2019-05-26T19:16:03.457Z,5.80
2019-05-26T19:18:34.793Z,6.13
2019-05-26T19:21:06.297Z,5.80
2019-05-26T19:23:37.607Z,7.30
2019-05-26T19:26:09.214Z,5.17
2019-05-26T19:28:40.666Z,4.93
2019-05-26T19:31:12.056Z,7.30
2019-05-26T19:33:43.463Z,10.47
2019-05-26T19:36:17.278Z,7.40
2019-05-26T19:38:48.528Z,10.33
2019-05-26T19:41:20.359Z,4.43
2019-05-26T19:43:51.822Z,4.80
2019-05-26T19:46:23.290Z,6.70
2019-05-26T19:48:54.710Z,3.97
2019-05-26T19:51:26.055Z,4.40
2019-05-26T19:53:57.356Z,4.70
2019-05-26T19:56:28.722Z,6.20
2019-05-26T19:59:00.088Z,5.20
2019-05-26T20:01:31.366Z,7.40
2019-05-26T20:04:02.856Z,3.87
2019-05-26T20:06:34.296Z,4.20
2019-05-26T20:09:07.766Z,3.77
2019-05-26T20:11:39.198Z,3.63
2019-05-26T20:14:10.535Z,3.27
2019-05-26T20:16:41.796Z,8.47
2019-05-26T20:19:13.145Z,3.20
2019-05-26T20:21:45.049Z,6.27
2019-05-26T20:24:16.564Z,4.30
2019-05-26T20:26:48.752Z,2.60
2019-05-26T20:29:19.987Z,4.77
2019-05-26T20:31:51.323Z,3.90
2019-05-26T20:34:22.766Z,3.90
2019-05-26T20:36:54.193Z,6.70
2019-05-26T20:39:25.636Z,4.40
2019-05-26T20:41:56.896Z,4.17
2019-05-26T20:44:29.976Z,5.80
2019-05-26T20:47:01.216Z,7.07
2019-05-26T20:49:44.839Z,5.20
2019-05-26T20:52:05.788Z,4.87
2019-05-26T20:54:40.021Z,5.00
2019-05-26T20:57:12.670Z,4.30
2019-05-26T20:59:45.493Z,6.87
2019-05-26T21:02:17.016Z,6.80
2019-05-26T21:04:48.421Z,4.50
2019-05-26T21:07:19.721Z,7.77
2019-05-26T21:09:50.965Z,5.30
2019-05-26T21:12:22.227Z,4.70
2019-05-26T21:14:53.529Z,6.10
2019-05-26T21:17:24.823Z,5.43
2019-05-26T21:19:56.429Z,5.90
2019-05-26T21:22:27.669Z,5.07
2019-05-26T21:24:58.971Z,5.40
2019-05-26T21:27:30.264Z,7.07
2019-05-26T21:30:01.478Z,5.90
2019-05-26T21:32:32.665Z,6.23
2019-05-26T21:35:03.990Z,4.83
2019-05-26T21:37:35.319Z,4.50
2019-05-26T21:40:08.388Z,6.83
2019-05-26T21:42:39.639Z,5.47
2019-05-26T21:45:11.481Z,6.47
2019-05-26T21:47:42.763Z,6.20
2019-05-26T21:50:15.605Z,7.30
2019-05-26T21:52:46.848Z,5.97
2019-05-26T21:55:18.423Z,7.83
2019-05-26T21:57:49.639Z,5.50
2019-05-26T22:00:25.234Z,8.30
2019-05-26T22:02:56.858Z,5.33
2019-05-26T22:05:28.140Z,7.53
2019-05-26T22:07:59.338Z,4.03
2019-05-26T22:10:30.560Z,5.50
2019-05-26T22:13:01.799Z,5.47
2019-05-26T22:15:33.079Z,9.03
2019-05-26T22:18:04.410Z,3.00
2019-05-26T22:20:35.572Z,10.00
2019-05-26T22:23:06.938Z,3.90
2019-05-26T22:25:38.200Z,4.63
2019-05-26T22:28:09.411Z,4.90
2019-05-26T22:30:40.651Z,6.20
2019-05-26T22:33:11.934Z,8.53
2019-05-26T22:35:43.177Z,5.13
2019-05-26T22:38:14.404Z,5.53
2019-05-26T22:40:46.655Z,5.00
2019-05-26T22:43:17.927Z,4.80
2019-05-26T22:45:49.155Z,6.20
2019-05-26T22:48:20.371Z,3.60
2019-05-26T22:50:51.647Z,3.03
2019-05-26T22:53:22.914Z,5.03
2019-05-26T22:55:54.092Z,3.60
2019-05-26T22:58:25.380Z,4.50
2019-05-26T23:00:56.625Z,2.87
2019-05-26T23:03:27.979Z,5.83
2019-05-26T23:05:59.251Z,4.07
2019-05-26T23:08:30.474Z,4.07
2019-05-26T23:11:01.720Z,5.20
2019-05-26T23:13:32.968Z,5.43
2019-05-26T23:16:04.280Z,4.20
2019-05-26T23:18:35.485Z,3.40
2019-05-26T23:21:06.742Z,6.67
2019-05-26T23:23:37.901Z,4.30
2019-05-26T23:26:09.248Z,4.70
2019-05-26T23:28:40.494Z,4.43
2019-05-26T23:31:11.850Z,6.57
2019-05-26T23:33:43.074Z,6.50
2019-05-26T23:36:14.227Z,5.70
2019-05-26T23:38:45.485Z,5.03
2019-05-26T23:41:16.747Z,7.43
2019-05-26T23:43:48.048Z,4.90
2019-05-26T23:46:19.274Z,6.33
2019-05-26T23:48:50.531Z,5.53
2019-05-26T23:51:21.759Z,4.80
2019-05-26T23:53:53.042Z,7.50
2019-05-26T23:56:24.291Z,6.03
2019-05-26T23:58:55.544Z,7.03
